This is the latest recevied weather packets stored in our database for station/object 9W2CEW-1. If no packets are shown the sender has not sent any weather packets the latest 10 day(s).
| Time | Temp. | Humidity | Pressure | Rain* | Wind** | Luminosity | Snow |
|---|---|---|---|---|---|---|---|
| 1788053016 | 41.11° C | 34% | 1007.1 hPa | - | - | - | - |
| 1788052116 | 39.44° C | 35% | 1006.9 hPa | - | - | - | - |
| 1788051216 | 37.78° C | 38% | 1006.9 hPa | - | - | - | - |
| 1788050316 | 38.33° C | 37% | 1006.6 hPa | - | - | - | - |
| 1788049415 | 40° C | 34% | 1006.5 hPa | - | - | - | - |
| 1788048515 | 37.78° C | 37% | 1006.3 hPa | - | - | - | - |
| 1788047615 | 37.22° C | 37% | 1006.2 hPa | - | - | - | - |
| 1788046715 | 36.67° C | 40% | 1006.1 hPa | - | - | - | - |
| 1788045815 | 35° C | 43% | 1005.9 hPa | - | - | - | - |
| 1788044915 | 33.89° C | 44% | 1006 hPa | - | - | - | - |
| 1788044330 | 41.11° C | 35% | 1005.5 hPa | - | - | - | - |
| 1788044015 | 33.89° C | 46% | 1005.8 hPa | - | - | - | - |
| 1788043345 | 40.56° C | 35% | 1005.4 hPa | - | - | - | - |
| 1788043115 | 33.89° C | 46% | 1005.9 hPa | - | - | - | - |
| 1788042234 | 38.33° C | 42% | 1005.1 hPa | - | - | - | - |
| 1788042215 | 34.44° C | 45% | 1005.7 hPa | - | - | - | - |
| 1788041315 | 33.89° C | 47% | 1005.4 hPa | - | - | - | - |
| 1788041308 | 38.33° C | 41% | 1004.9 hPa | - | - | - | - |
| 1788040415 | 33.33° C | 47% | 1005.4 hPa | - | - | - | - |
| 1788040062 | 40° C | 39% | 1004.7 hPa | - | - | - | - |
| 1788039514 | 32.22° C | 51% | 1005.4 hPa | - | - | - | - |
| 1788039159 | 39.44° C | 39% | 1004.4 hPa | - | - | - | - |
| 1788038614 | 32.78° C | 50% | 1005.7 hPa | - | - | - | - |
| 1788037878 | 41.11° C | 37% | 1004.4 hPa | - | - | - | - |
| 1788037714 | 33.89° C | 46% | 1005.7 hPa | - | - | - | - |
* Rain since midnight (hover to see other rain measurements)
** Current wind speed in m/s (hover to see current wind gust speed)